sensor_id;sensor_type;location;lat;lon;timestamp;P1;durP1;ratioP1;P2;durP2;ratioP2
23658;SDS011;12006;42.666;23.326;2023-04-03T00:02:58;4.20;;;3.07;;
23658;SDS011;12006;42.666;23.326;2023-04-03T00:06:22;3.27;;;2.77;;
23658;SDS011;12006;42.666;23.326;2023-04-03T00:09:46;6.10;;;3.23;;
23658;SDS011;12006;42.666;23.326;2023-04-03T00:13:10;3.87;;;2.50;;
23658;SDS011;12006;42.666;23.326;2023-04-03T00:16:34;5.53;;;3.10;;
23658;SDS011;12006;42.666;23.326;2023-04-03T00:20:00;3.90;;;2.97;;
23658;SDS011;12006;42.666;23.326;2023-04-03T00:23:24;3.43;;;2.60;;
23658;SDS011;12006;42.666;23.326;2023-04-03T00:26:47;4.53;;;3.33;;
23658;SDS011;12006;42.666;23.326;2023-04-03T00:30:13;4.17;;;3.07;;
23658;SDS011;12006;42.666;23.326;2023-04-03T00:33:39;4.87;;;2.83;;
23658;SDS011;12006;42.666;23.326;2023-04-03T00:37:03;3.67;;;2.67;;
23658;SDS011;12006;42.666;23.326;2023-04-03T00:40:27;3.50;;;2.60;;
23658;SDS011;12006;42.666;23.326;2023-04-03T00:43:51;6.27;;;2.90;;
23658;SDS011;12006;42.666;23.326;2023-04-03T00:47:17;5.47;;;3.47;;
23658;SDS011;12006;42.666;23.326;2023-04-03T00:50:45;5.53;;;3.13;;
23658;SDS011;12006;42.666;23.326;2023-04-03T00:54:08;5.33;;;3.00;;
23658;SDS011;12006;42.666;23.326;2023-04-03T00:57:33;4.10;;;3.30;;
23658;SDS011;12006;42.666;23.326;2023-04-03T01:01:05;3.33;;;2.87;;
23658;SDS011;12006;42.666;23.326;2023-04-03T01:04:31;3.90;;;3.50;;
23658;SDS011;12006;42.666;23.326;2023-04-03T01:07:56;5.63;;;3.30;;
23658;SDS011;12006;42.666;23.326;2023-04-03T01:11:21;4.87;;;4.10;;
23658;SDS011;12006;42.666;23.326;2023-04-03T01:14:51;5.93;;;4.00;;
23658;SDS011;12006;42.666;23.326;2023-04-03T01:18:16;6.57;;;4.30;;
23658;SDS011;12006;42.666;23.326;2023-04-03T01:21:45;6.03;;;4.27;;
23658;SDS011;12006;42.666;23.326;2023-04-03T01:25:18;6.97;;;4.07;;
23658;SDS011;12006;42.666;23.326;2023-04-03T01:28:43;6.70;;;4.17;;
23658;SDS011;12006;42.666;23.326;2023-04-03T01:32:08;9.30;;;4.57;;
23658;SDS011;12006;42.666;23.326;2023-04-03T01:35:32;5.03;;;4.27;;
23658;SDS011;12006;42.666;23.326;2023-04-03T01:38:56;7.30;;;4.70;;
23658;SDS011;12006;42.666;23.326;2023-04-03T01:42:21;9.40;;;4.63;;
23658;SDS011;12006;42.666;23.326;2023-04-03T01:45:44;6.03;;;4.83;;
23658;SDS011;12006;42.666;23.326;2023-04-03T01:49:09;5.10;;;4.10;;
23658;SDS011;12006;42.666;23.326;2023-04-03T01:52:33;7.07;;;4.47;;
23658;SDS011;12006;42.666;23.326;2023-04-03T01:55:57;3.70;;;3.40;;
23658;SDS011;12006;42.666;23.326;2023-04-03T01:59:21;4.17;;;3.37;;
23658;SDS011;12006;42.666;23.326;2023-04-03T02:02:45;4.10;;;3.70;;
23658;SDS011;12006;42.666;23.326;2023-04-03T02:06:09;3.70;;;3.30;;
23658;SDS011;12006;42.666;23.326;2023-04-03T02:09:33;7.27;;;4.03;;
23658;SDS011;12006;42.666;23.326;2023-04-03T02:12:57;4.27;;;3.87;;
23658;SDS011;12006;42.666;23.326;2023-04-03T02:16:20;4.73;;;4.23;;
23658;SDS011;12006;42.666;23.326;2023-04-03T02:19:44;7.53;;;4.40;;
23658;SDS011;12006;42.666;23.326;2023-04-03T02:23:08;5.30;;;3.87;;
23658;SDS011;12006;42.666;23.326;2023-04-03T02:26:32;5.60;;;4.07;;
23658;SDS011;12006;42.666;23.326;2023-04-03T02:29:56;5.10;;;3.80;;
23658;SDS011;12006;42.666;23.326;2023-04-03T02:33:20;5.47;;;4.17;;
23658;SDS011;12006;42.666;23.326;2023-04-03T02:36:44;5.20;;;4.20;;
23658;SDS011;12006;42.666;23.326;2023-04-03T02:40:08;5.07;;;3.97;;
23658;SDS011;12006;42.666;23.326;2023-04-03T02:43:34;6.07;;;4.27;;
23658;SDS011;12006;42.666;23.326;2023-04-03T02:46:58;7.77;;;5.40;;
23658;SDS011;12006;42.666;23.326;2023-04-03T02:50:22;6.43;;;4.80;;
23658;SDS011;12006;42.666;23.326;2023-04-03T02:53:47;13.77;;;5.20;;
23658;SDS011;12006;42.666;23.326;2023-04-03T02:57:11;8.93;;;5.17;;
23658;SDS011;12006;42.666;23.326;2023-04-03T03:00:36;7.07;;;5.27;;
23658;SDS011;12006;42.666;23.326;2023-04-03T03:04:00;7.87;;;5.73;;
23658;SDS011;12006;42.666;23.326;2023-04-03T03:07:24;6.73;;;5.50;;
23658;SDS011;12006;42.666;23.326;2023-04-03T03:10:48;7.53;;;5.77;;
23658;SDS011;12006;42.666;23.326;2023-04-03T03:14:12;8.33;;;6.30;;
23658;SDS011;12006;42.666;23.326;2023-04-03T03:17:36;6.50;;;5.40;;
23658;SDS011;12006;42.666;23.326;2023-04-03T03:21:01;8.77;;;5.67;;
23658;SDS011;12006;42.666;23.326;2023-04-03T03:24:26;9.87;;;5.60;;
23658;SDS011;12006;42.666;23.326;2023-04-03T03:27:50;8.90;;;6.43;;
23658;SDS011;12006;42.666;23.326;2023-04-03T03:31:14;8.73;;;6.53;;
23658;SDS011;12006;42.666;23.326;2023-04-03T03:34:38;7.80;;;5.80;;
23658;SDS011;12006;42.666;23.326;2023-04-03T03:38:02;8.93;;;6.00;;
23658;SDS011;12006;42.666;23.326;2023-04-03T03:41:26;7.93;;;5.90;;
23658;SDS011;12006;42.666;23.326;2023-04-03T03:44:50;10.63;;;8.13;;
23658;SDS011;12006;42.666;23.326;2023-04-03T03:48:17;10.13;;;6.30;;
23658;SDS011;12006;42.666;23.326;2023-04-03T03:51:41;11.27;;;6.93;;
23658;SDS011;12006;42.666;23.326;2023-04-03T03:55:05;9.60;;;7.27;;
23658;SDS011;12006;42.666;23.326;2023-04-03T03:58:29;10.47;;;7.40;;
23658;SDS011;12006;42.666;23.326;2023-04-03T04:01:53;12.70;;;7.10;;
23658;SDS011;12006;42.666;23.326;2023-04-03T04:05:17;11.50;;;7.30;;
23658;SDS011;12006;42.666;23.326;2023-04-03T04:08:41;10.30;;;7.80;;
23658;SDS011;12006;42.666;23.326;2023-04-03T04:12:05;11.03;;;7.43;;
23658;SDS011;12006;42.666;23.326;2023-04-03T04:15:29;10.03;;;6.23;;
23658;SDS011;12006;42.666;23.326;2023-04-03T04:18:53;13.90;;;7.20;;
23658;SDS011;12006;42.666;23.326;2023-04-03T04:22:17;11.03;;;7.97;;
23658;SDS011;12006;42.666;23.326;2023-04-03T04:25:43;10.30;;;6.97;;
23658;SDS011;12006;42.666;23.326;2023-04-03T04:29:08;14.27;;;7.77;;
23658;SDS011;12006;42.666;23.326;2023-04-03T04:32:33;10.77;;;7.67;;
23658;SDS011;12006;42.666;23.326;2023-04-03T04:35:57;11.83;;;7.43;;
23658;SDS011;12006;42.666;23.326;2023-04-03T04:39:21;8.80;;;7.40;;
23658;SDS011;12006;42.666;23.326;2023-04-03T04:42:45;10.37;;;7.37;;
23658;SDS011;12006;42.666;23.326;2023-04-03T04:46:09;12.43;;;8.03;;
23658;SDS011;12006;42.666;23.326;2023-04-03T04:49:34;14.27;;;9.10;;
23658;SDS011;12006;42.666;23.326;2023-04-03T04:52:58;11.80;;;7.90;;
23658;SDS011;12006;42.666;23.326;2023-04-03T04:56:22;18.17;;;8.20;;
23658;SDS011;12006;42.666;23.326;2023-04-03T04:59:46;16.90;;;8.40;;
23658;SDS011;12006;42.666;23.326;2023-04-03T05:03:10;15.03;;;8.17;;
23658;SDS011;12006;42.666;23.326;2023-04-03T05:06:34;15.30;;;8.27;;
23658;SDS011;12006;42.666;23.326;2023-04-03T05:09:58;14.70;;;7.77;;
23658;SDS011;12006;42.666;23.326;2023-04-03T05:13:22;15.30;;;8.80;;
23658;SDS011;12006;42.666;23.326;2023-04-03T05:16:46;15.97;;;8.23;;
23658;SDS011;12006;42.666;23.326;2023-04-03T05:20:10;10.77;;;7.03;;
23658;SDS011;12006;42.666;23.326;2023-04-03T05:23:34;10.20;;;7.07;;
23658;SDS011;12006;42.666;23.326;2023-04-03T05:26:58;12.97;;;8.10;;
23658;SDS011;12006;42.666;23.326;2023-04-03T05:30:22;9.93;;;7.67;;
23658;SDS011;12006;42.666;23.326;2023-04-03T05:33:46;13.67;;;7.67;;
23658;SDS011;12006;42.666;23.326;2023-04-03T05:37:10;13.03;;;7.73;;
23658;SDS011;12006;42.666;23.326;2023-04-03T05:40:33;10.53;;;8.07;;
23658;SDS011;12006;42.666;23.326;2023-04-03T05:43:57;13.37;;;8.00;;
23658;SDS011;12006;42.666;23.326;2023-04-03T05:47:21;13.57;;;8.10;;
23658;SDS011;12006;42.666;23.326;2023-04-03T05:50:46;17.23;;;8.87;;
23658;SDS011;12006;42.666;23.326;2023-04-03T05:54:12;13.40;;;7.27;;
23658;SDS011;12006;42.666;23.326;2023-04-03T05:57:37;11.00;;;7.20;;
23658;SDS011;12006;42.666;23.326;2023-04-03T06:01:01;10.60;;;8.13;;
23658;SDS011;12006;42.666;23.326;2023-04-03T06:04:26;16.67;;;9.87;;
23658;SDS011;12006;42.666;23.326;2023-04-03T06:07:49;18.27;;;10.07;;
23658;SDS011;12006;42.666;23.326;2023-04-03T06:11:15;14.80;;;9.53;;
23658;SDS011;12006;42.666;23.326;2023-04-03T06:14:39;15.57;;;10.13;;
23658;SDS011;12006;42.666;23.326;2023-04-03T06:18:04;15.63;;;10.27;;
23658;SDS011;12006;42.666;23.326;2023-04-03T06:21:29;14.90;;;10.30;;
23658;SDS011;12006;42.666;23.326;2023-04-03T06:24:54;16.67;;;10.90;;
23658;SDS011;12006;42.666;23.326;2023-04-03T06:28:19;17.77;;;11.77;;
23658;SDS011;12006;42.666;23.326;2023-04-03T06:31:44;16.13;;;11.80;;
23658;SDS011;12006;42.666;23.326;2023-04-03T06:35:08;19.87;;;12.77;;
23658;SDS011;12006;42.666;23.326;2023-04-03T06:38:34;18.90;;;9.93;;
23658;SDS011;12006;42.666;23.326;2023-04-03T06:41:58;9.43;;;6.77;;
23658;SDS011;12006;42.666;23.326;2023-04-03T06:45:22;14.43;;;8.60;;
23658;SDS011;12006;42.666;23.326;2023-04-03T06:48:47;16.23;;;11.23;;
23658;SDS011;12006;42.666;23.326;2023-04-03T06:52:11;15.90;;;11.40;;
23658;SDS011;12006;42.666;23.326;2023-04-03T06:55:35;15.33;;;10.37;;
23658;SDS011;12006;42.666;23.326;2023-04-03T06:59:00;16.77;;;10.47;;
23658;SDS011;12006;42.666;23.326;2023-04-03T07:02:23;15.47;;;11.00;;
23658;SDS011;12006;42.666;23.326;2023-04-03T07:05:48;17.87;;;10.63;;
23658;SDS011;12006;42.666;23.326;2023-04-03T07:09:13;15.30;;;10.70;;
23658;SDS011;12006;42.666;23.326;2023-04-03T07:12:37;15.40;;;10.30;;
23658;SDS011;12006;42.666;23.326;2023-04-03T07:16:02;15.70;;;9.90;;
23658;SDS011;12006;42.666;23.326;2023-04-03T07:19:26;13.57;;;9.17;;
23658;SDS011;12006;42.666;23.326;2023-04-03T07:22:50;8.63;;;6.63;;
23658;SDS011;12006;42.666;23.326;2023-04-03T07:26:13;5.03;;;4.53;;
23658;SDS011;12006;42.666;23.326;2023-04-03T07:29:38;4.90;;;4.20;;
23658;SDS011;12006;42.666;23.326;2023-04-03T07:33:07;5.37;;;4.27;;
23658;SDS011;12006;42.666;23.326;2023-04-03T07:36:31;6.27;;;4.93;;
23658;SDS011;12006;42.666;23.326;2023-04-03T07:39:55;5.80;;;5.17;;
23658;SDS011;12006;42.666;23.326;2023-04-03T07:43:19;7.07;;;5.97;;
23658;SDS011;12006;42.666;23.326;2023-04-03T07:46:44;10.07;;;7.67;;
23658;SDS011;12006;42.666;23.326;2023-04-03T07:50:08;9.80;;;6.97;;
23658;SDS011;12006;42.666;23.326;2023-04-03T07:53:32;12.13;;;7.80;;
23658;SDS011;12006;42.666;23.326;2023-04-03T07:56:56;10.53;;;7.60;;
23658;SDS011;12006;42.666;23.326;2023-04-03T08:00:20;9.67;;;7.13;;
23658;SDS011;12006;42.666;23.326;2023-04-03T08:03:44;11.33;;;8.23;;
23658;SDS011;12006;42.666;23.326;2023-04-03T08:07:08;8.77;;;7.43;;
23658;SDS011;12006;42.666;23.326;2023-04-03T08:10:33;11.57;;;8.77;;
23658;SDS011;12006;42.666;23.326;2023-04-03T08:13:57;12.07;;;10.07;;
23658;SDS011;12006;42.666;23.326;2023-04-03T08:17:21;15.27;;;10.73;;
23658;SDS011;12006;42.666;23.326;2023-04-03T08:20:46;13.17;;;9.53;;
23658;SDS011;12006;42.666;23.326;2023-04-03T08:24:11;11.83;;;10.20;;
23658;SDS011;12006;42.666;23.326;2023-04-03T08:27:35;17.47;;;11.40;;
23658;SDS011;12006;42.666;23.326;2023-04-03T08:31:03;18.47;;;15.87;;
23658;SDS011;12006;42.666;23.326;2023-04-03T08:34:27;21.17;;;16.47;;
23658;SDS011;12006;42.666;23.326;2023-04-03T08:37:51;20.30;;;17.37;;
23658;SDS011;12006;42.666;23.326;2023-04-03T08:49:24;16.37;;;13.63;;
23658;SDS011;12006;42.666;23.326;2023-04-03T08:52:58;17.83;;;15.97;;
23658;SDS011;12006;42.666;23.326;2023-04-03T08:56:25;20.93;;;15.17;;
23658;SDS011;12006;42.666;23.326;2023-04-03T09:00:03;23.03;;;16.20;;
23658;SDS011;12006;42.666;23.326;2023-04-03T09:03:40;18.93;;;15.30;;
23658;SDS011;12006;42.666;23.326;2023-04-03T09:07:07;18.73;;;11.90;;
23658;SDS011;12006;42.666;23.326;2023-04-03T09:10:37;12.90;;;10.03;;
23658;SDS011;12006;42.666;23.326;2023-04-03T09:21:17;11.80;;;10.60;;
23658;SDS011;12006;42.666;23.326;2023-04-03T09:24:58;15.60;;;11.02;;
23658;SDS011;12006;42.666;23.326;2023-04-03T09:28:30;14.15;;;10.65;;
23658;SDS011;12006;42.666;23.326;2023-04-03T09:32:02;11.40;;;9.75;;
23658;SDS011;12006;42.666;23.326;2023-04-03T09:39:09;10.35;;;8.05;;
23658;SDS011;12006;42.666;23.326;2023-04-03T09:42:53;11.60;;;8.05;;
23658;SDS011;12006;42.666;23.326;2023-04-03T09:46:28;6.75;;;5.45;;
23658;SDS011;12006;42.666;23.326;2023-04-03T09:57:10;7.20;;;6.43;;
23658;SDS011;12006;42.666;23.326;2023-04-03T10:00:53;6.10;;;4.75;;
23658;SDS011;12006;42.666;23.326;2023-04-03T10:04:36;6.53;;;4.53;;
23658;SDS011;12006;42.666;23.326;2023-04-03T10:08:35;5.85;;;5.25;;
23658;SDS011;12006;42.666;23.326;2023-04-03T10:12:06;5.70;;;4.93;;
23658;SDS011;12006;42.666;23.326;2023-04-03T10:15:42;5.32;;;4.03;;
23658;SDS011;12006;42.666;23.326;2023-04-03T10:27:02;9.90;;;6.33;;
23658;SDS011;12006;42.666;23.326;2023-04-03T10:30:56;9.93;;;8.60;;
23658;SDS011;12006;42.666;23.326;2023-04-03T10:34:37;8.20;;;6.70;;
23658;SDS011;12006;42.666;23.326;2023-04-03T10:46:05;5.30;;;3.67;;
23658;SDS011;12006;42.666;23.326;2023-04-03T10:49:36;9.03;;;6.20;;
23658;SDS011;12006;42.666;23.326;2023-04-03T10:53:22;4.70;;;3.40;;
23658;SDS011;12006;42.666;23.326;2023-04-03T10:57:06;3.50;;;3.17;;
23658;SDS011;12006;42.666;23.326;2023-04-03T11:00:42;3.67;;;2.97;;
23658;SDS011;12006;42.666;23.326;2023-04-03T11:04:09;3.97;;;2.97;;
23658;SDS011;12006;42.666;23.326;2023-04-03T11:07:40;2.83;;;2.47;;
23658;SDS011;12006;42.666;23.326;2023-04-03T11:11:13;2.50;;;2.00;;
23658;SDS011;12006;42.666;23.326;2023-04-03T11:14:38;2.60;;;2.37;;
23658;SDS011;12006;42.666;23.326;2023-04-03T11:18:09;4.30;;;3.90;;
23658;SDS011;12006;42.666;23.326;2023-04-03T11:21:36;4.33;;;3.93;;
23658;SDS011;12006;42.666;23.326;2023-04-03T11:28:38;3.10;;;2.80;;
23658;SDS011;12006;42.666;23.326;2023-04-03T11:32:09;3.63;;;3.00;;
23658;SDS011;12006;42.666;23.326;2023-04-03T11:35:55;8.30;;;7.37;;
23658;SDS011;12006;42.666;23.326;2023-04-03T11:39:29;4.70;;;3.60;;
23658;SDS011;12006;42.666;23.326;2023-04-03T12:05:25;4.63;;;4.17;;
23658;SDS011;12006;42.666;23.326;2023-04-03T12:08:52;5.47;;;4.93;;
23658;SDS011;12006;42.666;23.326;2023-04-03T12:12:35;5.00;;;3.63;;
23658;SDS011;12006;42.666;23.326;2023-04-03T12:16:02;9.80;;;8.80;;
23658;SDS011;12006;42.666;23.326;2023-04-03T12:19:29;4.17;;;3.77;;
23658;SDS011;12006;42.666;23.326;2023-04-03T12:23:25;4.60;;;4.20;;
23658;SDS011;12006;42.666;23.326;2023-04-03T12:30:25;6.20;;;5.60;;
23658;SDS011;12006;42.666;23.326;2023-04-03T12:34:16;4.07;;;3.67;;
23658;SDS011;12006;42.666;23.326;2023-04-03T12:41:18;5.60;;;4.07;;
23658;SDS011;12006;42.666;23.326;2023-04-03T12:48:16;5.67;;;3.60;;
23658;SDS011;12006;42.666;23.326;2023-04-03T12:52:00;4.67;;;4.10;;
23658;SDS011;12006;42.666;23.326;2023-04-03T12:55:31;5.10;;;4.60;;
23658;SDS011;12006;42.666;23.326;2023-04-03T12:59:42;4.90;;;4.40;;
23658;SDS011;12006;42.666;23.326;2023-04-03T13:03:03;8.90;;;6.80;;
23658;SDS011;12006;42.666;23.326;2023-04-03T13:06:35;5.57;;;5.07;;
23658;SDS011;12006;42.666;23.326;2023-04-03T13:13:34;5.17;;;4.67;;
23658;SDS011;12006;42.666;23.326;2023-04-03T13:16:59;7.23;;;5.90;;
23658;SDS011;12006;42.666;23.326;2023-04-03T13:20:30;5.97;;;5.40;;
23658;SDS011;12006;42.666;23.326;2023-04-03T13:23:58;6.40;;;5.57;;
23658;SDS011;12006;42.666;23.326;2023-04-03T13:27:24;8.13;;;7.43;;
23658;SDS011;12006;42.666;23.326;2023-04-03T13:34:21;6.60;;;5.93;;
23658;SDS011;12006;42.666;23.326;2023-04-03T13:38:00;7.27;;;6.60;;
23658;SDS011;12006;42.666;23.326;2023-04-03T13:41:32;15.57;;;13.70;;
23658;SDS011;12006;42.666;23.326;2023-04-03T13:48:41;7.90;;;7.20;;
23658;SDS011;12006;42.666;23.326;2023-04-03T13:52:32;13.20;;;10.77;;
23658;SDS011;12006;42.666;23.326;2023-04-03T13:56:00;7.40;;;6.80;;
23658;SDS011;12006;42.666;23.326;2023-04-03T14:02:55;8.03;;;7.33;;
23658;SDS011;12006;42.666;23.326;2023-04-03T14:06:24;7.73;;;6.97;;
23658;SDS011;12006;42.666;23.326;2023-04-03T14:09:49;7.17;;;6.57;;
23658;SDS011;12006;42.666;23.326;2023-04-03T14:13:15;7.03;;;6.37;;
23658;SDS011;12006;42.666;23.326;2023-04-03T14:16:45;8.77;;;5.90;;
23658;SDS011;12006;42.666;23.326;2023-04-03T14:20:14;7.13;;;6.07;;
23658;SDS011;12006;42.666;23.326;2023-04-03T14:23:40;7.37;;;6.67;;
23658;SDS011;12006;42.666;23.326;2023-04-03T14:27:05;6.77;;;6.17;;
23658;SDS011;12006;42.666;23.326;2023-04-03T14:30:38;6.60;;;6.10;;
23658;SDS011;12006;42.666;23.326;2023-04-03T14:34:03;7.60;;;6.80;;
23658;SDS011;12006;42.666;23.326;2023-04-03T14:37:28;8.03;;;7.17;;
23658;SDS011;12006;42.666;23.326;2023-04-03T14:40:55;7.70;;;6.90;;
23658;SDS011;12006;42.666;23.326;2023-04-03T14:44:19;7.67;;;6.97;;
23658;SDS011;12006;42.666;23.326;2023-04-03T14:47:53;6.67;;;6.07;;
23658;SDS011;12006;42.666;23.326;2023-04-03T14:51:17;8.23;;;7.53;;
23658;SDS011;12006;42.666;23.326;2023-04-03T14:54:46;6.80;;;6.20;;
23658;SDS011;12006;42.666;23.326;2023-04-03T14:58:14;8.33;;;6.57;;
23658;SDS011;12006;42.666;23.326;2023-04-03T15:01:39;6.13;;;5.63;;
23658;SDS011;12006;42.666;23.326;2023-04-03T15:05:05;5.90;;;5.40;;
23658;SDS011;12006;42.666;23.326;2023-04-03T15:08:29;6.50;;;5.90;;
23658;SDS011;12006;42.666;23.326;2023-04-03T15:11:54;6.67;;;5.60;;
23658;SDS011;12006;42.666;23.326;2023-04-03T15:15:19;5.80;;;5.33;;
23658;SDS011;12006;42.666;23.326;2023-04-03T15:18:44;6.23;;;5.63;;
23658;SDS011;12006;42.666;23.326;2023-04-03T15:22:19;6.60;;;5.90;;
23658;SDS011;12006;42.666;23.326;2023-04-03T15:25:43;6.67;;;5.57;;
23658;SDS011;12006;42.666;23.326;2023-04-03T15:29:08;5.70;;;5.20;;
23658;SDS011;12006;42.666;23.326;2023-04-03T15:32:33;5.70;;;5.10;;
23658;SDS011;12006;42.666;23.326;2023-04-03T15:35:58;5.53;;;5.03;;
23658;SDS011;12006;42.666;23.326;2023-04-03T15:39:22;5.23;;;4.83;;
23658;SDS011;12006;42.666;23.326;2023-04-03T15:42:46;6.63;;;6.03;;
23658;SDS011;12006;42.666;23.326;2023-04-03T15:46:10;6.10;;;5.50;;
23658;SDS011;12006;42.666;23.326;2023-04-03T15:49:34;5.33;;;4.83;;
23658;SDS011;12006;42.666;23.326;2023-04-03T15:52:59;5.87;;;5.30;;
23658;SDS011;12006;42.666;23.326;2023-04-03T15:56:23;5.33;;;4.83;;
23658;SDS011;12006;42.666;23.326;2023-04-03T15:59:50;7.80;;;7.00;;
23658;SDS011;12006;42.666;23.326;2023-04-03T16:03:16;7.17;;;6.57;;
23658;SDS011;12006;42.666;23.326;2023-04-03T16:06:40;5.70;;;5.20;;
23658;SDS011;12006;42.666;23.326;2023-04-03T16:10:05;6.60;;;6.00;;
23658;SDS011;12006;42.666;23.326;2023-04-03T16:13:29;5.47;;;5.00;;
23658;SDS011;12006;42.666;23.326;2023-04-03T16:16:55;5.80;;;5.30;;
23658;SDS011;12006;42.666;23.326;2023-04-03T16:20:19;5.87;;;5.30;;
23658;SDS011;12006;42.666;23.326;2023-04-03T16:23:43;5.83;;;5.33;;
23658;SDS011;12006;42.666;23.326;2023-04-03T16:27:08;6.23;;;5.63;;
23658;SDS011;12006;42.666;23.326;2023-04-03T16:30:32;5.90;;;5.40;;
23658;SDS011;12006;42.666;23.326;2023-04-03T16:33:57;5.40;;;4.93;;
23658;SDS011;12006;42.666;23.326;2023-04-03T16:37:22;6.47;;;5.87;;
23658;SDS011;12006;42.666;23.326;2023-04-03T16:40:47;5.60;;;5.13;;
23658;SDS011;12006;42.666;23.326;2023-04-03T16:44:11;5.57;;;5.07;;
23658;SDS011;12006;42.666;23.326;2023-04-03T16:47:35;5.83;;;5.03;;
23658;SDS011;12006;42.666;23.326;2023-04-03T16:50:59;5.73;;;5.33;;
23658;SDS011;12006;42.666;23.326;2023-04-03T16:54:23;6.30;;;5.70;;
23658;SDS011;12006;42.666;23.326;2023-04-03T16:57:47;5.97;;;5.43;;
23658;SDS011;12006;42.666;23.326;2023-04-03T17:01:12;6.40;;;5.90;;
23658;SDS011;12006;42.666;23.326;2023-04-03T17:04:36;6.57;;;5.97;;
23658;SDS011;12006;42.666;23.326;2023-04-03T17:08:00;6.73;;;6.13;;
23658;SDS011;12006;42.666;23.326;2023-04-03T17:11:24;6.73;;;6.13;;
23658;SDS011;12006;42.666;23.326;2023-04-03T17:14:48;5.87;;;5.30;;
23658;SDS011;12006;42.666;23.326;2023-04-03T17:18:12;6.67;;;6.00;;
23658;SDS011;12006;42.666;23.326;2023-04-03T17:21:36;5.40;;;4.90;;
23658;SDS011;12006;42.666;23.326;2023-04-03T17:25:01;5.53;;;5.03;;
23658;SDS011;12006;42.666;23.326;2023-04-03T17:28:26;6.30;;;5.70;;
23658;SDS011;12006;42.666;23.326;2023-04-03T17:31:50;7.43;;;5.87;;
23658;SDS011;12006;42.666;23.326;2023-04-03T17:35:14;6.23;;;5.57;;
23658;SDS011;12006;42.666;23.326;2023-04-03T17:38:38;6.57;;;5.97;;
23658;SDS011;12006;42.666;23.326;2023-04-03T17:42:02;7.77;;;6.97;;
23658;SDS011;12006;42.666;23.326;2023-04-03T17:45:26;6.73;;;6.13;;
23658;SDS011;12006;42.666;23.326;2023-04-03T17:48:50;6.57;;;5.90;;
23658;SDS011;12006;42.666;23.326;2023-04-03T17:52:15;6.80;;;5.90;;
23658;SDS011;12006;42.666;23.326;2023-04-03T17:55:39;6.47;;;5.80;;
23658;SDS011;12006;42.666;23.326;2023-04-03T17:59:03;7.20;;;6.47;;
23658;SDS011;12006;42.666;23.326;2023-04-03T18:02:28;6.23;;;5.57;;
23658;SDS011;12006;42.666;23.326;2023-04-03T18:05:52;7.37;;;6.07;;
23658;SDS011;12006;42.666;23.326;2023-04-03T18:09:35;5.70;;;5.13;;
23658;SDS011;12006;42.666;23.326;2023-04-03T18:13:00;6.77;;;6.10;;
23658;SDS011;12006;42.666;23.326;2023-04-03T18:16:26;5.70;;;5.03;;
23658;SDS011;12006;42.666;23.326;2023-04-03T18:19:53;7.00;;;4.77;;
23658;SDS011;12006;42.666;23.326;2023-04-03T18:23:17;4.10;;;3.70;;
23658;SDS011;12006;42.666;23.326;2023-04-03T18:26:43;4.40;;;4.10;;
23658;SDS011;12006;42.666;23.326;2023-04-03T18:30:10;5.00;;;4.00;;
23658;SDS011;12006;42.666;23.326;2023-04-03T18:33:36;3.60;;;3.30;;
23658;SDS011;12006;42.666;23.326;2023-04-03T18:37:00;4.03;;;3.63;;
23658;SDS011;12006;42.666;23.326;2023-04-03T18:40:23;3.27;;;2.77;;
23658;SDS011;12006;42.666;23.326;2023-04-03T18:43:52;3.63;;;3.23;;
23658;SDS011;12006;42.666;23.326;2023-04-03T18:47:18;4.40;;;3.20;;
23658;SDS011;12006;42.666;23.326;2023-04-03T18:50:43;4.87;;;3.10;;
23658;SDS011;12006;42.666;23.326;2023-04-03T18:54:07;6.20;;;2.83;;
23658;SDS011;12006;42.666;23.326;2023-04-03T18:57:31;2.90;;;2.60;;
23658;SDS011;12006;42.666;23.326;2023-04-03T19:00:56;2.90;;;2.60;;
23658;SDS011;12006;42.666;23.326;2023-04-03T19:04:20;2.67;;;2.33;;
23658;SDS011;12006;42.666;23.326;2023-04-03T19:07:46;2.50;;;2.30;;
23658;SDS011;12006;42.666;23.326;2023-04-03T19:11:11;3.07;;;2.53;;
23658;SDS011;12006;42.666;23.326;2023-04-03T19:14:35;3.23;;;2.20;;
23658;SDS011;12006;42.666;23.326;2023-04-03T19:17:59;3.73;;;2.50;;
23658;SDS011;12006;42.666;23.326;2023-04-03T19:21:23;2.50;;;2.30;;
23658;SDS011;12006;42.666;23.326;2023-04-03T19:24:47;2.90;;;2.03;;
23658;SDS011;12006;42.666;23.326;2023-04-03T19:28:11;3.23;;;2.63;;
23658;SDS011;12006;42.666;23.326;2023-04-03T19:31:37;2.40;;;1.90;;
23658;SDS011;12006;42.666;23.326;2023-04-03T19:35:01;2.60;;;1.80;;
23658;SDS011;12006;42.666;23.326;2023-04-03T19:38:28;3.73;;;2.10;;
23658;SDS011;12006;42.666;23.326;2023-04-03T19:41:54;2.47;;;2.27;;
23658;SDS011;12006;42.666;23.326;2023-04-03T19:45:18;2.10;;;1.90;;
23658;SDS011;12006;42.666;23.326;2023-04-03T19:48:43;3.30;;;2.60;;
23658;SDS011;12006;42.666;23.326;2023-04-03T19:52:07;1.80;;;1.70;;
23658;SDS011;12006;42.666;23.326;2023-04-03T19:55:35;1.70;;;1.60;;
23658;SDS011;12006;42.666;23.326;2023-04-03T19:58:59;4.33;;;2.00;;
23658;SDS011;12006;42.666;23.326;2023-04-03T20:02:23;2.27;;;2.07;;
23658;SDS011;12006;42.666;23.326;2023-04-03T20:05:47;2.47;;;2.27;;
23658;SDS011;12006;42.666;23.326;2023-04-03T20:09:11;2.83;;;1.97;;
23658;SDS011;12006;42.666;23.326;2023-04-03T20:12:36;2.53;;;2.00;;
23658;SDS011;12006;42.666;23.326;2023-04-03T20:16:03;3.53;;;2.30;;
23658;SDS011;12006;42.666;23.326;2023-04-03T20:19:28;1.77;;;1.63;;
23658;SDS011;12006;42.666;23.326;2023-04-03T20:22:52;1.30;;;1.20;;
23658;SDS011;12006;42.666;23.326;2023-04-03T20:26:20;1.90;;;1.33;;
23658;SDS011;12006;42.666;23.326;2023-04-03T20:29:44;1.37;;;1.27;;
23658;SDS011;12006;42.666;23.326;2023-04-03T20:33:12;2.40;;;1.73;;
23658;SDS011;12006;42.666;23.326;2023-04-03T20:36:37;2.10;;;1.83;;
23658;SDS011;12006;42.666;23.326;2023-04-03T20:40:04;2.57;;;1.60;;
23658;SDS011;12006;42.666;23.326;2023-04-03T20:43:29;1.77;;;1.53;;
23658;SDS011;12006;42.666;23.326;2023-04-03T20:46:53;2.27;;;1.83;;
23658;SDS011;12006;42.666;23.326;2023-04-03T20:50:17;1.40;;;1.23;;
23658;SDS011;12006;42.666;23.326;2023-04-03T20:53:43;2.03;;;1.33;;
23658;SDS011;12006;42.666;23.326;2023-04-03T20:57:07;1.80;;;1.40;;
23658;SDS011;12006;42.666;23.326;2023-04-03T21:00:31;1.50;;;1.40;;
23658;SDS011;12006;42.666;23.326;2023-04-03T21:03:57;1.47;;;1.37;;
23658;SDS011;12006;42.666;23.326;2023-04-03T21:22:35;1.87;;;1.73;;
23658;SDS011;12006;42.666;23.326;2023-04-03T21:25:59;1.77;;;1.67;;
23658;SDS011;12006;42.666;23.326;2023-04-03T21:29:23;1.90;;;1.70;;
23658;SDS011;12006;42.666;23.326;2023-04-03T21:32:47;2.63;;;1.67;;
23658;SDS011;12006;42.666;23.326;2023-04-03T21:36:10;1.70;;;1.60;;
23658;SDS011;12006;42.666;23.326;2023-04-03T21:39:35;1.87;;;1.70;;
23658;SDS011;12006;42.666;23.326;2023-04-03T21:42:59;1.70;;;1.60;;
23658;SDS011;12006;42.666;23.326;2023-04-03T21:46:23;3.43;;;2.93;;
23658;SDS011;12006;42.666;23.326;2023-04-03T21:49:47;2.80;;;1.90;;
23658;SDS011;12006;42.666;23.326;2023-04-03T21:53:13;2.03;;;1.70;;
23658;SDS011;12006;42.666;23.326;2023-04-03T21:56:37;2.20;;;1.97;;
23658;SDS011;12006;42.666;23.326;2023-04-03T22:00:01;2.47;;;1.73;;
23658;SDS011;12006;42.666;23.326;2023-04-03T22:03:35;2.30;;;2.10;;
23658;SDS011;12006;42.666;23.326;2023-04-03T22:06:59;2.77;;;2.00;;
23658;SDS011;12006;42.666;23.326;2023-04-03T22:10:23;2.50;;;2.30;;